Rawsonville, Michigan
Current Conditions -  °F | °C
As of 12:53 AM on Sunday 26 Oct 2014 (Local Time) from KYIP Reporting Station
Clear Clear  
Wind Chill: 56°   Ceiling: Unl
Heat Index: 56°   Visibility: 10mi
Dew Point: 32°   Wind: 16mph
Humidity: 40%   Direction: 300°WNW
Pressure: 29.83"   Gusts: NA
Location:  42.1967°N, 83.6251°W
Report Text: KYIP 260453Z AUTO 30014KT 10SM CLR 13/00 A2983 RMK AO2 SLP098 T01330000 402330078 TSNO $
Loading
Personal Weather Stations






























Interactive Weather Map
Tropical Storm Tracking
New forecast layout! Learn more

10-Day Weather Forecast

Advertisements
Track Severe Weather on mobile